Time;durP1;ratioP1;P1;durP2;ratioP2;P2;SDS_P1;SDS_P2;PMS_P1;PMS_P2;Temp;Humidity;BMP_temperature;BMP_pressure;BME280_temperature;BME280_humidity;BME280_pressure;Samples;Min_cycle;Max_cycle;Signal;HPM_P1;HPM_P2
2023/07/11 00:00:59;;;;;;;1.73;1.63;;;;;;;18.99;66.33;101560.59;5054874;28;20355;-81
2023/07/11 00:03:25;;;;;;;1.77;1.67;;;;;;;18.97;66.12;101550.16;5053360;28;20033;-81
2023/07/11 00:06:05;;;;;;;1.70;1.60;;;;;;;18.97;66.86;101557.19;5054953;28;20108;-81
2023/07/11 00:08:30;;;;;;;1.70;1.60;;;;;;;18.87;66.64;101553.16;5053969;28;20156;-81
2023/07/11 00:10:57;;;;;;;1.77;1.67;;;;;;;18.84;66.94;101556.75;5054678;28;20403;-80
2023/07/11 00:13:23;;;;;;;2.20;1.60;;;;;;;18.78;67.04;101549.97;5053901;28;20067;-80
2023/07/11 00:16:01;;;;;;;1.60;1.50;;;;;;;18.69;67.00;101542.44;5068363;28;20032;-80
2023/07/11 00:18:26;;;;;;;2.17;1.63;;;;;;;18.66;67.50;101542.56;5073779;28;20036;-81
2023/07/11 00:20:52;;;;;;;1.83;1.53;;;;;;;18.62;67.56;101541.81;5074051;28;20025;-81
2023/07/11 00:23:17;;;;;;;1.63;1.43;;;;;;;18.55;68.23;101545.59;5073123;28;20020;-81
2023/07/11 00:25:43;;;;;;;1.67;1.57;;;;;;;18.52;67.96;101543.09;5074079;28;20025;-81
2023/07/11 00:28:08;;;;;;;1.80;1.67;;;;;;;18.45;68.06;101529.31;5074006;28;20135;-81
2023/07/11 00:30:33;;;;;;;1.60;1.50;;;;;;;18.43;68.30;101527.66;5073128;28;20083;-81
2023/07/11 00:32:59;;;;;;;1.77;1.67;;;;;;;18.41;68.56;101529.50;5074189;28;20032;-81
2023/07/11 00:35:24;;;;;;;1.77;1.60;;;;;;;18.37;68.53;101534.00;5073631;28;20094;-81
2023/07/11 00:37:49;;;;;;;2.07;1.87;;;;;;;18.32;68.65;101528.94;5055213;28;20035;-79
2023/07/11 00:40:15;;;;;;;2.10;1.90;;;;;;;18.30;69.11;101524.63;5073388;28;20047;-79
2023/07/11 00:42:43;;;;;;;3.03;1.90;;;;;;;18.29;68.95;101536.06;5074131;28;20047;-80
2023/07/11 00:45:46;;;;;;;2.00;1.73;;;;;;;18.27;69.41;101530.84;5072632;28;20029;-80
2023/07/11 00:48:13;;;;;;;1.83;1.70;;;;;;;18.24;69.41;101530.09;5073333;28;20039;-80
2023/07/11 00:50:39;;;;;;;2.28;2.08;;;;;;;18.21;69.45;101531.09;5071982;28;20441;-80
2023/07/11 00:53:08;;;;;;;1.90;1.80;;;;;;;18.16;69.52;101535.63;5073776;28;20024;-80
2023/07/11 00:55:33;;;;;;;2.95;2.00;;;;;;;18.15;69.65;101539.16;5073702;28;20055;-80
2023/07/11 00:57:59;;;;;;;2.03;1.83;;;;;;;18.11;69.87;101538.44;5072083;28;20472;-80
2023/07/11 01:00:25;;;;;;;2.03;1.80;;;;;;;18.08;69.91;101537.69;5073047;28;20591;-80
2023/07/11 01:02:50;;;;;;;2.65;2.00;;;;;;;18.05;70.17;101543.91;5073075;28;20477;-80
2023/07/11 01:05:16;;;;;;;1.87;1.77;;;;;;;17.99;70.55;101541.50;5071873;28;20072;-80
2023/07/11 01:07:42;;;;;;;1.75;1.65;;;;;;;17.95;70.43;101538.09;5073231;28;20032;-80
2023/07/11 01:10:07;;;;;;;2.00;1.80;;;;;;;17.91;70.53;101539.97;5073150;28;20024;-80
2023/07/11 01:12:36;;;;;;;1.83;1.73;;;;;;;17.89;70.78;101548.81;5072528;28;20107;-80
2023/07/11 01:15:03;;;;;;;2.67;1.80;;;;;;;17.89;70.41;101548.81;5073042;28;20100;-80
2023/07/11 01:17:31;;;;;;;2.13;1.83;;;;;;;17.86;71.08;101541.88;5072897;28;20025;-80
2023/07/11 01:20:03;;;;;;;2.15;1.85;;;;;;;17.80;71.53;101538.63;5071869;28;20491;-80
2023/07/11 01:22:31;;;;;;;2.00;1.80;;;;;;;17.75;71.44;101537.03;5072669;28;20469;-80
2023/07/11 01:25:14;;;;;;;2.50;1.90;;;;;;;17.71;71.67;101530.16;5070998;28;20025;-80
2023/07/11 01:27:42;;;;;;;1.65;1.55;;;;;;;17.67;71.83;101538.19;5072575;28;20111;-80
2023/07/11 01:30:14;;;;;;;1.73;1.63;;;;;;;17.63;71.74;101524.31;5072557;28;20478;-80
2023/07/11 01:32:40;;;;;;;2.10;1.63;;;;;;;17.58;72.10;101529.72;5072191;28;20020;-80
2023/07/11 01:35:06;;;;;;;1.60;1.50;;;;;;;17.57;72.29;101529.75;5072683;28;20170;-80
2023/07/11 01:37:32;;;;;;;1.55;1.45;;;;;;;17.51;72.36;101522.09;5072835;28;20493;-80
2023/07/11 01:40:01;;;;;;;1.90;1.77;;;;;;;17.48;72.34;101520.44;5072047;28;20067;-80
2023/07/11 01:42:27;;;;;;;2.03;1.83;;;;;;;17.46;72.66;101522.25;5054428;28;20291;-80
2023/07/11 01:44:52;;;;;;;1.80;1.70;;;;;;;17.43;72.54;101510.13;5072918;28;20075;-80
2023/07/11 01:47:18;;;;;;;2.23;2.03;;;;;;;17.41;72.80;101508.44;5071209;28;20032;-80
2023/07/11 01:49:43;;;;;;;2.00;1.90;;;;;;;17.41;72.94;101503.19;5072914;28;20035;-80
2023/07/11 01:52:15;;;;;;;2.23;2.03;;;;;;;17.40;73.03;101498.84;5072272;28;20028;-80
2023/07/11 01:54:40;;;;;;;2.95;2.10;;;;;;;17.36;73.02;101498.09;5072071;28;20028;-80
2023/07/11 01:57:09;;;;;;;2.37;2.00;;;;;;;17.31;73.76;101492.16;5072690;28;20188;-80
2023/07/11 01:59:36;;;;;;;2.38;1.85;;;;;;;17.27;73.28;101493.16;5072656;28;20036;-79
2023/07/11 02:02:03;;;;;;;2.55;1.90;;;;;;;17.26;73.50;101486.19;5071018;28;20029;-80
2023/07/11 02:04:28;;;;;;;1.92;1.73;;;;;;;17.20;73.34;101486.41;5072219;28;20020;-80
2023/07/11 02:06:53;;;;;;;2.20;2.00;;;;;;;17.18;73.94;101489.06;5072424;28;20025;-79
2023/07/11 02:09:20;;;;;;;2.20;2.00;;;;;;;17.14;73.96;101484.84;5071773;28;20059;-80
2023/07/11 02:11:46;;;;;;;2.08;1.95;;;;;;;17.12;74.13;101481.41;5072673;28;20373;-80
2023/07/11 02:14:19;;;;;;;1.97;1.87;;;;;;;17.08;74.57;101480.66;5072521;28;20123;-80
2023/07/11 02:16:46;;;;;;;2.15;1.98;;;;;;;17.05;74.29;101477.28;5071358;28;20349;-80
2023/07/11 02:19:13;;;;;;;2.15;1.95;;;;;;;17.01;74.87;101465.16;5055622;28;20156;-80
2023/07/11 02:21:39;;;;;;;1.92;1.83;;;;;;;16.98;75.14;101469.59;5052378;28;20155;-80
2023/07/11 02:24:07;;;;;;;1.90;1.80;;;;;;;16.95;74.89;101468.84;5051878;28;20469;-80
2023/07/11 02:26:32;;;;;;;2.00;1.90;;;;;;;16.89;74.58;101458.53;5052339;28;20029;-80
2023/07/11 02:28:58;;;;;;;2.13;2.00;;;;;;;16.81;75.14;101453.53;5051917;28;20025;-80
2023/07/11 02:31:23;;;;;;;2.03;1.93;;;;;;;16.82;75.26;101455.25;5052218;28;20087;-80
2023/07/11 02:33:49;;;;;;;2.20;2.00;;;;;;;16.75;75.20;101438.84;5052242;28;20058;-80
2023/07/11 02:36:14;;;;;;;2.17;2.00;;;;;;;16.75;75.29;101443.22;5059345;28;20122;-80
2023/07/11 02:38:40;;;;;;;2.43;2.10;;;;;;;16.73;75.46;101448.53;5072148;28;20511;-80
2023/07/11 02:41:05;;;;;;;2.40;2.20;;;;;;;16.70;75.35;101438.13;5072413;28;20028;-80
2023/07/11 02:43:30;;;;;;;2.00;1.90;;;;;;;16.65;75.40;101440.88;5071536;28;20112;-80
2023/07/11 02:45:56;;;;;;;2.30;2.10;;;;;;;16.62;75.33;101432.28;5071810;28;20025;-80
2023/07/11 02:48:21;;;;;;;2.00;1.87;;;;;;;16.60;75.62;101434.06;5072087;28;20111;-80
2023/07/11 02:50:46;;;;;;;2.20;2.00;;;;;;;16.60;75.78;101434.06;5071473;28;20025;-80
2023/07/11 02:53:12;;;;;;;2.10;2.00;;;;;;;16.54;75.84;101423.81;5071959;28;20036;-80
2023/07/11 02:55:40;;;;;;;2.93;2.10;;;;;;;16.51;75.71;101420.38;5072141;28;20493;-80
2023/07/11 02:58:05;;;;;;;3.05;2.08;;;;;;;16.49;76.01;101422.16;5070925;28;20028;-80
2023/07/11 03:00:31;;;;;;;1.83;1.73;;;;;;;16.42;76.11;101410.19;5072151;28;20036;-80
2023/07/11 03:02:56;;;;;;;1.80;1.70;;;;;;;16.43;76.79;101416.25;5071959;28;20485;-80
2023/07/11 03:05:22;;;;;;;2.00;1.90;;;;;;;16.40;76.36;101413.72;5071005;28;20473;-80
2023/07/11 03:07:47;;;;;;;2.30;2.10;;;;;;;16.38;76.41;101411.16;5072324;28;20074;-80
2023/07/11 03:10:13;;;;;;;2.67;2.23;;;;;;;16.37;76.45;101406.81;5071813;28;20159;-80
2023/07/11 03:12:38;;;;;;;2.27;2.07;;;;;;;16.34;76.65;101401.69;5070871;28;20103;-80
2023/07/11 03:15:04;;;;;;;2.20;2.00;;;;;;;16.30;76.65;101398.28;5057242;28;20023;-80
2023/07/11 03:17:29;;;;;;;2.53;2.22;;;;;;;16.30;76.91;101398.28;5073967;28;20029;-80
2023/07/11 03:19:54;;;;;;;2.20;2.00;;;;;;;16.30;76.81;101394.84;5074811;28;20473;-80
2023/07/11 03:22:20;;;;;;;2.70;2.23;;;;;;;16.27;76.78;101392.31;5075072;28;20051;-80
2023/07/11 03:24:45;;;;;;;2.20;2.00;;;;;;;16.24;77.07;101388.03;5075351;28;20025;-80
2023/07/11 03:27:10;;;;;;;2.43;2.10;;;;;;;16.21;77.15;101380.25;5073641;28;20508;-80
2023/07/11 03:29:36;;;;;;;2.30;2.10;;;;;;;16.19;77.18;101384.66;5075262;28;20384;-80
2023/07/11 03:32:02;;;;;;;2.00;1.80;;;;;;;16.17;77.38;101378.63;5075330;28;20449;-81
2023/07/11 03:34:28;;;;;;;1.80;1.70;;;;;;;16.16;77.34;101376.91;5074385;28;20033;-80
2023/07/11 03:36:53;;;;;;;2.53;1.90;;;;;;;16.17;77.43;101379.50;5061022;28;20051;-80
2023/07/11 03:39:18;;;;;;;2.80;1.80;;;;;;;16.19;77.46;101376.81;5054080;28;20055;-80
2023/07/11 03:41:44;;;;;;;2.03;1.83;;;;;;;16.10;77.21;101361.38;5055126;28;20097;-80
2023/07/11 03:44:12;;;;;;;2.23;2.00;;;;;;;16.19;77.40;101380.31;5054320;28;20032;-80
2023/07/11 03:46:37;;;;;;;2.10;2.00;;;;;;;16.20;77.55;101381.16;5053954;28;20052;-80
2023/07/11 03:49:03;;;;;;;2.00;1.90;;;;;;;16.20;77.79;101384.66;5054451;28;20055;-80
2023/07/11 03:51:28;;;;;;;2.13;1.80;;;;;;;16.15;77.81;101375.22;5054401;28;20052;-80
2023/07/11 03:53:53;;;;;;;2.03;1.90;;;;;;;16.18;77.77;101385.56;5053775;28;20440;-80
2023/07/11 03:56:19;;;;;;;2.27;1.90;;;;;;;16.15;77.91;101376.06;5054307;28;20381;-80
2023/07/11 03:58:44;;;;;;;2.03;1.93;;;;;;;16.15;77.87;101376.06;5054443;28;20124;-80
2023/07/11 04:01:09;;;;;;;2.07;1.87;;;;;;;16.13;78.02;101375.25;5053657;28;20112;-80
2023/07/11 04:03:35;;;;;;;2.13;2.00;;;;;;;16.10;77.95;101374.47;5054576;28;20040;-80
2023/07/11 04:06:00;;;;;;;2.07;1.97;;;;;;;16.11;78.17;101369.19;5054432;28;20067;-80
2023/07/11 04:08:25;;;;;;;2.40;2.20;;;;;;;16.07;78.38;101370.19;5053687;28;20033;-80
2023/07/11 04:10:50;;;;;;;2.10;1.90;;;;;;;16.06;78.57;101365.88;5054733;28;20388;-80
2023/07/11 04:13:16;;;;;;;2.27;2.00;;;;;;;16.05;78.46;101369.38;5053899;28;20059;-80
2023/07/11 04:15:47;;;;;;;2.10;1.90;;;;;;;16.04;78.57;101365.03;5048346;28;20025;-80
2023/07/11 04:18:12;;;;;;;1.83;1.73;;;;;;;16.03;78.62;101364.22;5034242;28;20097;-80
2023/07/11 04:20:38;;;;;;;1.70;1.60;;;;;;;16.03;78.94;101364.22;5034598;28;20108;-80
2023/07/11 04:23:03;;;;;;;1.90;1.80;;;;;;;16.00;79.32;101353.81;5033660;28;20465;-80
2023/07/11 04:25:28;;;;;;;1.67;1.57;;;;;;;16.04;79.31;101354.56;5033432;28;20421;-80
2023/07/11 04:27:56;;;;;;;1.77;1.67;;;;;;;16.06;80.43;101352.78;5033966;28;20025;-80
2023/07/11 04:30:21;;;;;;;1.73;1.63;;;;;;;16.07;80.01;101354.50;5042007;28;20088;-80
2023/07/11 04:32:51;;;;;;;1.83;1.53;;;;;;;16.09;80.44;101350.06;5053891;28;20028;-80
2023/07/11 04:35:17;;;;;;;2.35;1.58;;;;;;;16.13;81.59;101346.44;5054322;28;20033;-80
2023/07/11 04:37:42;;;;;;;1.30;1.30;;;;;;;16.17;81.36;101348.06;5073399;28;20031;-80
2023/07/11 04:40:10;;;;;;;1.90;1.50;;;;;;;16.21;82.93;101343.59;5073815;28;20111;-80
2023/07/11 04:42:35;;;;;;;1.50;1.40;;;;;;;16.26;80.46;101343.44;5073025;28;20021;-82
2023/07/11 04:45:00;;;;;;;1.47;1.43;;;;;;;16.27;81.26;101338.16;5074068;28;20465;-81
2023/07/11 04:47:27;;;;;;;1.43;1.33;;;;;;;16.32;82.02;101328.41;5073296;28;20032;-81
2023/07/11 04:49:52;;;;;;;;;;;;;;;16.41;81.45;101331.63;5073563;28;20049;-82
2023/07/11 04:52:17;;;;;;;1.13;1.13;;;;;;;16.44;81.83;101337.59;5073332;28;20300;-81
2023/07/11 04:54:44;;;;;;;1.60;1.10;;;;;;;16.47;81.94;101337.53;5073296;28;20098;-82
2023/07/11 04:57:09;;;;;;;1.60;1.50;;;;;;;16.51;83.18;101331.28;5072477;28;20048;-81
2023/07/11 04:59:35;;;;;;;2.28;1.77;;;;;;;16.58;82.35;101326.72;5073314;28;20075;-81
2023/07/11 05:02:03;;;;;;;1.50;1.40;;;;;;;16.64;82.89;101321.25;5073352;28;20028;-81
2023/07/11 05:04:28;;;;;;;1.80;1.70;;;;;;;16.72;83.39;101322.78;5072379;28;20487;-82
2023/07/11 05:06:53;;;;;;;2.17;1.97;;;;;;;16.80;84.16;101318.13;5073359;28;20119;-81
2023/07/11 05:09:19;;;;;;;2.00;1.80;;;;;;;16.85;82.29;101313.56;5073201;28;20033;-82
2023/07/11 05:11:44;;;;;;;1.87;1.77;;;;;;;16.93;82.80;101306.31;5063222;28;20439;-82
2023/07/11 05:14:10;;;;;;;3.00;2.10;;;;;;;17.06;82.85;101312.00;5053079;28;20028;-81
2023/07/11 05:16:35;;;;;;;2.00;1.87;;;;;;;17.14;81.95;101301.25;5053380;28;20033;-82
2023/07/11 05:19:00;;;;;;;2.17;2.00;;;;;;;17.25;82.73;101298.22;5052149;28;20024;-82
2023/07/11 05:21:27;;;;;;;2.60;1.90;;;;;;;17.35;81.96;101301.38;5053015;28;20024;-82
2023/07/11 05:23:55;;;;;;;2.25;2.05;;;;;;;17.42;82.16;101295.88;5053142;28;20033;-82
2023/07/11 05:26:21;;;;;;;2.50;1.88;;;;;;;17.49;81.49;101293.88;5052206;28;20025;-83
2023/07/11 05:28:46;;;;;;;2.17;1.90;;;;;;;17.59;81.97;101286.50;5053141;28;20199;-84
2023/07/11 05:31:12;;;;;;;1.90;1.67;;;;;;;17.71;80.82;101295.69;5052495;28;20421;-83
2023/07/11 05:33:37;;;;;;;2.03;1.83;;;;;;;17.77;80.47;101287.56;5052054;28;20021;-80
2023/07/11 05:36:20;;;;;;;1.77;1.67;;;;;;;17.89;80.90;101294.97;5059905;28;20047;-82
2023/07/11 05:38:46;;;;;;;1.90;1.80;;;;;;;18.02;81.40;101286.66;5072450;28;20028;-81
2023/07/11 05:41:12;;;;;;;2.40;2.20;;;;;;;18.12;80.22;101287.16;5072557;28;20424;-81
2023/07/11 05:43:37;;;;;;;3.17;2.40;;;;;;;18.26;80.14;101291.84;5072650;28;20020;-82
2023/07/11 05:46:03;;;;;;;4.03;2.20;;;;;;;18.36;78.95;101280.88;5071573;28;20450;-81
2023/07/11 05:48:28;;;;;;;3.63;2.30;;;;;;;18.48;78.40;101283.91;5072253;28;20025;-81
2023/07/11 05:51:02;;;;;;;3.43;2.10;;;;;;;18.62;77.99;101280.72;5072146;28;20041;-83
2023/07/11 05:53:28;;;;;;;3.33;2.20;;;;;;;18.68;77.14;101278.69;5071671;28;20028;-84
2023/07/11 05:55:55;;;;;;;2.78;2.15;;;;;;;18.79;76.65;101277.38;5072767;28;20025;-84
2023/07/11 05:58:20;;;;;;;3.97;2.33;;;;;;;18.90;76.22;101272.50;5072161;28;20075;-83
2023/07/11 06:00:45;;;;;;;3.67;2.50;;;;;;;19.01;75.03;101269.44;5062301;28;20048;-82
2023/07/11 06:03:11;;;;;;;4.70;2.40;;;;;;;19.10;74.85;101260.28;5071644;28;20037;-82
2023/07/11 06:05:40;;;;;;;4.13;2.33;;;;;;;19.23;74.76;101264.09;5072661;28;20029;-82
2023/07/11 06:08:08;;;;;;;4.10;2.40;;;;;;;19.38;74.47;101261.66;5070327;28;20024;-82
2023/07/11 06:10:37;;;;;;;3.42;2.33;;;;;;;19.52;73.92;101266.31;5072241;28;20094;-82
2023/07/11 06:13:02;;;;;;;3.65;2.25;;;;;;;19.66;73.52;101261.22;5071928;28;20028;-82
2023/07/11 06:15:27;;;;;;;3.47;2.30;;;;;;;20.32;71.92;101257.22;5070989;28;20031;-82
2023/07/11 06:17:53;;;;;;;4.57;2.50;;;;;;;22.01;67.17;101263.34;5063971;28;20025;-82
2023/07/11 06:20:18;;;;;;;3.43;2.23;;;;;;;23.38;64.32;101253.50;5071495;28;20445;-82
2023/07/11 06:22:43;;;;;;;4.17;2.40;;;;;;;24.02;61.45;101264.44;5062032;28;20568;-83
2023/07/11 06:25:09;;;;;;;2.80;2.10;;;;;;;23.84;61.85;101260.28;5051302;28;20100;-81
2023/07/11 06:27:34;;;;;;;2.83;2.20;;;;;;;23.73;59.77;101256.53;5049986;28;20044;-83
2023/07/11 06:29:59;;;;;;;3.20;2.30;;;;;;;23.88;60.72;101264.44;5050951;28;20021;-81
2023/07/11 06:32:25;;;;;;;2.47;2.10;;;;;;;24.09;61.07;101254.28;5071647;28;20492;-83
2023/07/11 06:34:50;;;;;;;3.50;2.00;;;;;;;24.34;60.27;101265.88;5071707;28;20036;-82
2023/07/11 06:37:15;;;;;;;2.87;2.10;;;;;;;24.66;58.39;101261.06;5070551;28;20506;-80
2023/07/11 06:39:44;;;;;;;2.77;2.00;;;;;;;24.97;57.83;101250.16;5072163;28;20472;-79
2023/07/11 06:42:09;;;;;;;2.72;2.00;;;;;;;25.32;54.78;101249.47;5071426;28;20024;-80
2023/07/11 06:44:35;;;;;;;3.87;2.10;;;;;;;25.44;55.24;101250.41;5072336;28;20024;-79
2023/07/11 06:47:00;;;;;;;1.92;1.73;;;;;;;25.67;55.65;101248.72;5071848;28;20052;-77
2023/07/11 06:49:26;;;;;;;2.40;1.70;;;;;;;25.83;56.10;101247.63;5073789;28;20119;-81
2023/07/11 06:51:51;;;;;;;2.50;1.90;;;;;;;26.08;52.95;101251.13;5076122;28;20271;-81
2023/07/11 06:54:17;;;;;;;2.40;1.80;;;;;;;26.10;50.63;101246.56;5075231;28;20662;-80
2023/07/11 06:56:42;;;;;;;2.50;1.90;;;;;;;26.15;54.45;101257.69;5074728;28;20132;-80
2023/07/11 06:59:08;;;;;;;2.77;2.10;;;;;;;26.09;50.74;101240.34;5075528;28;20055;-79
2023/07/11 07:01:33;;;;;;;3.67;2.08;;;;;;;26.06;55.24;101246.75;5075848;28;20023;-80
2023/07/11 07:04:00;;;;;;;2.58;2.15;;;;;;;26.15;54.53;101249.72;5056877;28;20028;-80
2023/07/11 07:06:26;;;;;;;3.28;2.40;;;;;;;26.13;51.57;101243.66;5075523;28;20389;-80
2023/07/11 07:08:51;;;;;;;2.40;2.20;;;;;;;25.96;49.31;101240.44;5075666;28;20025;-80
2023/07/11 07:11:17;;;;;;;2.83;2.20;;;;;;;25.97;51.71;101247.44;5074152;28;20048;-80
2023/07/11 07:13:42;;;;;;;1.90;1.77;;;;;;;26.09;50.93;101247.50;5075782;28;20457;-80
2023/07/11 07:16:08;;;;;;;1.83;1.73;;;;;;;26.19;51.50;101243.22;5074927;28;20020;-80
2023/07/11 07:18:34;;;;;;;1.67;1.58;;;;;;;26.28;50.57;101249.66;5075111;28;20036;-81
2023/07/11 07:21:01;;;;;;;1.60;1.50;;;;;;;26.44;53.52;101246.66;5075480;28;20052;-80
2023/07/11 07:23:27;;;;;;;2.10;1.70;;;;;;;26.56;50.99;101247.53;5074871;28;20498;-80
2023/07/11 07:25:55;;;;;;;1.95;1.65;;;;;;;26.63;52.59;101241.63;5074271;28;20025;-80
2023/07/11 07:28:21;;;;;;;1.65;1.55;;;;;;;26.81;53.72;101236.72;5074996;28;20028;-84
2023/07/11 07:30:48;;;;;;;;;;;;;;;27.01;51.67;101238.78;5075405;28;20548;-82
2023/07/11 07:33:16;;;;;;;1.35;1.25;;;;;;;27.08;52.52;101243.47;5073842;28;19912;-81
2023/07/11 07:35:42;;;;;;;1.77;1.67;;;;;;;27.12;50.24;101233.44;5074621;28;20102;-81
2023/07/11 07:38:09;;;;;;;1.60;1.50;;;;;;;27.10;48.45;101235.38;5074640;28;20032;-80
2023/07/11 07:40:35;;;;;;;2.53;1.85;;;;;;;27.06;50.59;101234.78;5074305;28;20381;-80
2023/07/11 07:43:00;;;;;;;2.00;1.57;;;;;;;26.96;48.92;101226.66;5074762;28;20020;-80
2023/07/11 07:45:25;;;;;;;2.70;1.90;;;;;;;26.91;47.12;101225.31;5073572;28;20659;-81
2023/07/11 07:47:51;;;;;;;2.37;1.80;;;;;;;26.85;48.37;101221.34;5075020;28;20035;-81
2023/07/11 07:50:16;;;;;;;2.27;1.80;;;;;;;26.86;49.68;101220.38;5074172;28;20059;-81
2023/07/11 07:52:41;;;;;;;1.70;1.60;;;;;;;26.95;51.13;101218.81;5073585;28;20278;-81
2023/07/11 07:55:08;;;;;;;1.87;1.60;;;;;;;27.10;48.88;101217.56;5073876;28;20089;-80
2023/07/11 07:57:33;;;;;;;;;;;;;;;27.09;50.36;101218.53;5074866;28;20499;-79
2023/07/11 07:59:58;;;;;;;2.28;1.83;;;;;;;27.11;50.43;101207.78;5072506;28;19912;-79
2023/07/11 08:02:24;;;;;;;2.05;1.85;;;;;;;27.22;50.12;101215.75;5074417;28;20095;-79
2023/07/11 08:04:49;;;;;;;1.93;1.60;;;;;;;27.28;50.88;101212.56;5074449;28;20026;-80
2023/07/11 08:07:15;;;;;;;2.88;1.52;;;;;;;27.42;48.71;101216.78;5073213;28;20036;-80
2023/07/11 08:09:42;;;;;;;1.70;1.60;;;;;;;27.48;50.24;101218.13;5074384;28;20401;-80
2023/07/11 08:12:09;;;;;;;1.58;1.45;;;;;;;27.47;45.72;101205.81;5074143;28;20051;-80
2023/07/11 08:14:36;;;;;;;1.63;1.52;;;;;;;27.39;49.71;101201.06;5073737;28;20016;-80
2023/07/11 08:17:02;;;;;;;1.35;1.25;;;;;;;27.51;50.40;101206.41;5074509;28;20364;-80
2023/07/11 08:19:28;;;;;;;;;;;;;;;27.68;47.31;101207.66;5074485;28;20413;-79
2023/07/11 08:21:53;;;;;;;3.23;1.53;;;;;;;27.68;46.49;101194.34;5073234;28;19998;-80
2023/07/11 08:24:18;;;;;;;;;;;;;;;27.73;47.53;101200.13;5074262;28;20056;-80
2023/07/11 08:26:53;;;;;;;2.43;1.60;;;;;;;27.85;48.30;101198.28;5074292;28;19986;-81
2023/07/11 08:29:18;;;;;;;3.10;1.63;;;;;;;27.85;48.18;101201.78;5073161;28;20028;-80
2023/07/11 08:31:44;;;;;;;;;;;;;;;27.81;47.49;101197.66;5074370;28;20113;-81
2023/07/11 08:34:09;;;;;;;1.70;1.50;;;;;;;27.87;48.23;101205.16;5073480;28;20412;-81
2023/07/11 08:36:37;;;;;;;2.20;1.85;;;;;;;27.99;43.67;101197.09;5072895;28;20068;-80
2023/07/11 08:39:02;;;;;;;2.42;1.65;;;;;;;27.92;45.94;101190.59;5073736;28;20028;-80
2023/07/11 08:41:40;;;;;;;;;;;;;;;27.87;47.54;101196.28;5073905;28;20083;-80
2023/07/11 08:44:17;;;;;;;2.65;1.67;;;;;;;27.97;47.38;101204.38;5073432;28;19919;-79
2023/07/11 08:46:55;;;;;;;3.13;1.65;;;;;;;28.06;46.05;101198.28;5073631;28;20079;-79
2023/07/11 08:49:28;;;;;;;1.38;1.27;;;;;;;28.19;47.10;101193.63;5072880;28;20054;-80
2023/07/11 08:51:59;;;;;;;2.42;1.60;;;;;;;28.24;45.67;101193.22;5073654;28;20036;-81
2023/07/11 08:54:30;;;;;;;1.60;1.48;;;;;;;28.08;46.21;101191.03;5073292;28;20024;-81
2023/07/11 08:56:58;;;;;;;2.95;1.55;;;;;;;27.99;43.56;101186.44;5072893;28;20028;-79
2023/07/11 09:00:02;;;;;;;2.17;1.40;;;;;;;28.02;45.94;101189.69;5073179;28;20021;-81
2023/07/11 09:02:41;;;;;;;1.50;1.00;;;;;;;27.98;43.55;101177.56;5068961;28;20060;-82
2023/07/11 09:05:18;;;;;;;2.15;1.55;;;;;;;27.94;44.73;101175.28;5050472;28;20059;-80
2023/07/11 09:07:45;;;;;;;2.05;1.40;;;;;;;27.84;45.42;101181.41;5069221;28;20016;-81
2023/07/11 09:10:25;;;;;;;2.65;1.63;;;;;;;27.72;45.19;101183.28;5072508;28;20376;-80
2023/07/11 09:13:01;;;;;;;2.92;1.85;;;;;;;27.66;46.32;101172.28;5073144;28;20021;-81
2023/07/11 09:15:52;;;;;;;1.92;1.73;;;;;;;27.68;44.51;101181.00;5072031;28;20032;-80
2023/07/11 09:19:02;;;;;;;1.95;1.60;;;;;;;27.79;47.29;101177.44;5072005;28;20032;-81
2023/07/11 09:21:36;;;;;;;1.38;1.27;;;;;;;28.09;45.21;101166.03;5070557;28;20073;-82
2023/07/11 09:24:33;;;;;;;2.05;1.50;;;;;;;28.44;48.13;101170.19;5072453;28;20028;-81
2023/07/11 09:27:15;;;;;;;2.47;1.63;;;;;;;28.76;45.34;101157.72;5065144;28;20032;-82
2023/07/11 09:29:46;;;;;;;2.17;1.67;;;;;;;28.85;44.12;101153.34;5072770;28;20029;-81
2023/07/11 09:32:13;;;;;;;4.75;2.00;;;;;;;28.91;42.02;101152.81;5071976;28;20666;-81
2023/07/11 09:34:43;;;;;;;2.35;1.80;;;;;;;29.05;43.29;101159.59;5073024;28;20115;-82
2023/07/11 09:37:25;;;;;;;3.72;1.90;;;;;;;29.34;40.77;101154.34;5056328;28;20037;-82
2023/07/11 09:40:24;;;;;;;2.70;1.75;;;;;;;29.44;44.21;101157.03;5052276;28;20104;-81
2023/07/11 09:42:52;;;;;;;1.73;1.50;;;;;;;29.51;44.74;101158.16;5052907;28;20021;-82
2023/07/11 09:45:20;;;;;;;1.38;1.27;;;;;;;29.72;45.18;101159.84;5051837;28;20033;-82
2023/07/11 09:48:05;;;;;;;1.27;1.20;;;;;;;29.97;42.45;101153.06;5052409;28;20103;-82
2023/07/11 09:50:35;;;;;;;2.03;1.50;;;;;;;30.03;43.47;101147.16;5052927;28;20017;-81
2023/07/11 09:53:02;;;;;;;2.42;1.50;;;;;;;30.14;43.12;101142.63;5051743;28;20021;-81
2023/07/11 09:55:34;;;;;;;1.30;1.20;;;;;;;30.31;44.27;101143.72;5052246;28;20472;-82
2023/07/11 09:58:00;;;;;;;2.35;1.40;;;;;;;30.49;43.47;101141.94;5052238;28;20037;-82
2023/07/11 10:00:26;;;;;;;3.28;1.88;;;;;;;30.46;42.22;101149.41;5051448;28;20057;-81
2023/07/11 10:02:51;;;;;;;2.78;1.92;;;;;;;30.29;40.54;101143.84;5052306;28;20063;-81
2023/07/11 10:05:18;;;;;;;1.50;1.40;;;;;;;30.12;41.12;101142.75;5051823;28;20041;-81
2023/07/11 10:07:44;;;;;;;2.58;1.80;;;;;;;30.06;41.98;101143.34;5051334;28;20028;-82
2023/07/11 10:10:13;;;;;;;1.73;1.60;;;;;;;30.10;41.80;101142.09;5052242;28;20017;-80
2023/07/11 10:12:43;;;;;;;3.22;1.70;;;;;;;30.25;40.30;101137.09;5052408;28;20492;-81
2023/07/11 10:15:14;;;;;;;3.22;1.77;;;;;;;30.27;40.64;101140.47;5051555;28;20028;-82
2023/07/11 10:17:43;;;;;;;2.33;1.80;;;;;;;30.17;41.59;101124.44;5052520;28;20036;-82
2023/07/11 10:20:17;;;;;;;2.28;1.63;;;;;;;30.25;41.50;101133.56;5051303;28;20055;-82
2023/07/11 10:22:47;;;;;;;3.40;2.00;;;;;;;30.33;40.67;101136.38;5053281;28;20351;-83
2023/07/11 10:25:27;;;;;;;2.10;1.90;;;;;;;30.44;39.62;101128.16;5056123;28;20021;-82
2023/07/11 10:28:03;;;;;;;4.28;2.20;;;;;;;30.40;38.93;101128.59;5055712;28;20035;-82
2023/07/11 10:30:33;;;;;;;2.83;1.90;;;;;;;30.48;41.69;101121.50;5056050;28;20465;-82
2023/07/11 10:33:04;;;;;;;2.55;1.70;;;;;;;30.62;40.77;101124.72;5056007;28;20032;-83
2023/07/11 10:35:30;;;;;;;2.92;1.80;;;;;;;30.57;40.09;101116.31;5052277;28;20075;-82
2023/07/11 10:38:04;;;;;;;2.80;1.83;;;;;;;30.41;40.65;101108.84;5055941;28;20033;-81
2023/07/11 10:40:36;;;;;;;3.15;1.80;;;;;;;30.26;41.01;101109.34;5053996;28;20052;-81
2023/07/11 10:43:15;;;;;;;3.13;1.77;;;;;;;30.31;41.83;101119.63;5054496;28;20033;-81
2023/07/11 10:45:44;;;;;;;4.40;2.13;;;;;;;30.44;40.99;101116.59;5056090;28;20029;-82
2023/07/11 10:48:33;;;;;;;3.45;2.05;;;;;;;30.65;40.77;101103.00;5055682;28;20027;-81
2023/07/11 10:51:07;;;;;;;4.13;2.20;;;;;;;30.72;38.28;101104.06;5055930;28;20051;-85
2023/07/11 10:53:55;;;;;;;1.98;1.80;;;;;;;30.74;40.99;101107.47;5056075;28;20370;-82
2023/07/11 10:56:38;;;;;;;2.95;1.90;;;;;;;30.74;40.51;101109.28;5054961;28;20461;-82
2023/07/11 10:59:03;;;;;;;1.77;1.65;;;;;;;30.65;40.96;101105.69;5055739;28;20040;-82
2023/07/11 11:01:37;;;;;;;1.70;1.60;;;;;;;30.59;41.15;101106.25;5055541;28;20029;-82
2023/07/11 11:04:27;;;;;;;2.78;1.70;;;;;;;30.44;39.28;101098.72;5054951;28;20099;-82
2023/07/11 11:07:01;;;;;;;2.33;1.80;;;;;;;30.37;41.09;101092.25;5055855;28;20029;-82
2023/07/11 11:09:42;;;;;;;2.45;1.80;;;;;;;30.33;40.93;101097.06;5054542;28;20469;-81
2023/07/11 11:12:29;;;;;;;2.53;1.98;;;;;;;30.49;39.85;101092.91;5055557;28;20427;-82
2023/07/11 11:15:03;;;;;;;2.75;1.77;;;;;;;30.59;38.21;101088.38;5055629;28;20108;-82
2023/07/11 11:17:56;;;;;;;2.42;1.80;;;;;;;30.61;39.35;101089.06;5054334;28;20025;-82
2023/07/11 11:20:46;;;;;;;3.45;2.10;;;;;;;30.62;39.72;101082.72;5055237;28;20033;-82
2023/07/11 11:23:17;;;;;;;4.43;1.85;;;;;;;30.73;40.10;101072.78;5055129;28;20028;-83
2023/07/11 11:26:01;;;;;;;3.63;2.22;;;;;;;30.68;38.00;101073.25;5054659;28;20526;-81
2023/07/11 11:28:35;;;;;;;2.20;2.00;;;;;;;30.70;39.16;101078.44;5055146;28;20059;-82
2023/07/11 11:31:19;;;;;;;3.08;1.95;;;;;;;30.65;37.97;101071.69;5054733;28;20083;-82
2023/07/11 11:33:54;;;;;;;2.45;1.80;;;;;;;30.70;37.91;101073.09;5055592;28;20115;-91